Time;durP1;ratioP1;P1;durP2;ratioP2;P2;SDS_P1;SDS_P2;PMS_P1;PMS_P2;Temp;Humidity;BMP_temperature;BMP_pressure;BME280_temperature;BME280_humidity;BME280_pressure;Samples;Min_cycle;Max_cycle;Signal;HPM_P1;HPM_P2
2022/05/06 00:02:07;;;;;;;20.53;14.90;;;;;;;;;;5006662;28;20458;-78
2022/05/06 00:04:43;;;;;;;18.37;15.30;;;;;;;;;;4989631;28;20472;-77
2022/05/06 00:07:20;;;;;;;18.70;15.60;;;;;;;;;;4991667;28;20464;-77
2022/05/06 00:09:56;;;;;;;19.53;15.27;;;;;;;;;;4990293;28;20987;-77
2022/05/06 00:12:32;;;;;;;19.03;14.73;;;;;;;;;;4990131;28;20449;-77
2022/05/06 00:15:08;;;;;;;20.30;15.53;;;;;;;;;;5005340;28;20956;-77
2022/05/06 00:17:44;;;;;;;20.33;16.33;;;;;;;;;;4993367;28;20812;-77
2022/05/06 00:20:19;;;;;;;17.60;14.90;;;;;;;;;;4987286;28;20445;-77
2022/05/06 00:22:57;;;;;;;18.73;15.97;;;;;;;;;;4992334;28;20456;-77
2022/05/06 00:25:33;;;;;;;17.70;15.83;;;;;;;;;;4993761;28;20500;-77
2022/05/06 00:28:08;;;;;;;25.77;17.30;;;;;;;;;;4992435;28;20870;-77
2022/05/06 00:30:44;;;;;;;20.27;16.80;;;;;;;;;;4989807;28;20461;-77
2022/05/06 00:33:24;;;;;;;22.67;15.80;;;;;;;;;;4989116;28;20437;-77
2022/05/06 00:36:05;;;;;;;24.00;15.10;;;;;;;;;;4994372;28;20447;-77
2022/05/06 00:38:43;;;;;;;19.23;14.70;;;;;;;;;;4991757;28;21055;-77
2022/05/06 00:41:19;;;;;;;19.10;16.13;;;;;;;;;;5020442;28;20461;-77
2022/05/06 00:43:54;;;;;;;20.03;15.67;;;;;;;;;;4977072;28;20448;-77
2022/05/06 00:46:29;;;;;;;22.53;18.07;;;;;;;;;;5003593;28;20461;-77
2022/05/06 00:49:07;;;;;;;20.07;16.50;;;;;;;;;;4989993;28;20461;-77
2022/05/06 00:51:44;;;;;;;19.47;16.93;;;;;;;;;;5021275;28;20851;-77
2022/05/06 00:54:23;;;;;;;20.77;15.70;;;;;;;;;;4986439;28;20441;-77
2022/05/06 00:56:59;;;;;;;21.83;16.10;;;;;;;;;;4975366;28;20496;-77
2022/05/06 01:00:17;;;;;;;18.90;16.50;;;;;;;;;;4976146;28;20444;-78
2022/05/06 01:02:31;;;;;;;19.13;14.90;;;;;;;;;;4989622;28;20453;-77
2022/05/06 01:05:07;;;;;;;23.23;17.67;;;;;;;;;;4974784;28;20464;-78
2022/05/06 01:07:44;;;;;;;17.27;14.70;;;;;;;;;;4973861;28;20468;-78
2022/05/06 01:10:22;;;;;;;19.33;16.03;;;;;;;;;;5002661;28;20469;-78
2022/05/06 01:12:58;;;;;;;19.47;15.80;;;;;;;;;;4990584;28;20445;-78
2022/05/06 01:15:36;;;;;;;19.10;16.43;;;;;;;;;;5005724;28;20437;-78
2022/05/06 01:18:20;;;;;;;19.30;16.97;;;;;;;;;;4987251;28;20454;-78
2022/05/06 01:20:56;;;;;;;18.27;16.27;;;;;;;;;;4987525;28;20445;-77
2022/05/06 01:23:34;;;;;;;25.80;17.07;;;;;;;;;;4975334;28;20441;-78
2022/05/06 01:26:09;;;;;;;20.50;17.40;;;;;;;;;;4990230;28;21003;-78
2022/05/06 01:28:45;;;;;;;21.90;15.63;;;;;;;;;;4989255;28;20515;-78
2022/05/06 01:31:22;;;;;;;24.93;17.23;;;;;;;;;;4972967;28;20452;-78
2022/05/06 01:33:57;;;;;;;17.77;15.83;;;;;;;;;;4986640;28;20465;-78
2022/05/06 01:36:33;;;;;;;22.33;16.70;;;;;;;;;;4977658;28;20944;-78
2022/05/06 01:39:10;;;;;;;20.43;16.43;;;;;;;;;;4992546;28;20441;-78
2022/05/06 01:41:46;;;;;;;21.30;17.17;;;;;;;;;;4971629;28;20488;-77
2022/05/06 01:44:25;;;;;;;19.87;16.40;;;;;;;;;;4975475;28;20438;-77
2022/05/06 01:47:03;;;;;;;18.80;15.10;;;;;;;;;;4988834;28;20536;-78
2022/05/06 01:49:39;;;;;;;17.67;14.50;;;;;;;;;;4988028;28;20473;-75
2022/05/06 01:52:16;;;;;;;22.33;16.90;;;;;;;;;;4972797;28;20549;-78
2022/05/06 01:54:53;;;;;;;20.40;16.23;;;;;;;;;;5005005;28;20456;-76
2022/05/06 01:57:29;;;;;;;18.47;15.10;;;;;;;;;;4977023;28;21016;-78
2022/05/06 02:00:06;;;;;;;18.63;15.37;;;;;;;;;;4978914;28;20789;-78
2022/05/06 02:02:51;;;;;;;18.63;16.33;;;;;;;;;;5023870;28;20453;-78
2022/05/06 02:05:34;;;;;;;18.90;15.90;;;;;;;;;;4975722;28;20461;-78
2022/05/06 02:08:10;;;;;;;22.63;16.83;;;;;;;;;;4976442;28;20448;-76
2022/05/06 02:10:48;;;;;;;21.10;15.80;;;;;;;;;;5004361;28;20472;-78
2022/05/06 02:13:28;;;;;;;20.90;17.10;;;;;;;;;;5022909;28;20473;-78
2022/05/06 02:16:22;;;;;;;21.90;16.30;;;;;;;;;;5025848;28;20453;-78
2022/05/06 02:19:14;;;;;;;18.87;14.80;;;;;;;;;;5020210;28;20466;-77
2022/05/06 02:22:04;;;;;;;22.10;15.77;;;;;;;;;;4994122;28;20453;-78
2022/05/06 02:25:09;;;;;;;21.07;16.47;;;;;;;;;;5021856;28;20516;-78
2022/05/06 02:28:01;;;;;;;21.27;17.07;;;;;;;;;;4995900;28;20452;-78
2022/05/06 02:33:32;;;;;;;21.27;15.73;;;;;;;;;;5007932;28;20928;-78
2022/05/06 02:36:16;;;;;;;17.83;15.10;;;;;;;;;;4987901;28;20936;-78
2022/05/06 02:38:52;;;;;;;18.17;15.60;;;;;;;;;;4992632;28;21002;-78
2022/05/06 02:41:27;;;;;;;18.77;16.07;;;;;;;;;;4975957;28;20453;-78
2022/05/06 02:44:06;;;;;;;16.10;14.00;;;;;;;;;;5019103;28;20437;-78
2022/05/06 02:46:49;;;;;;;19.63;15.17;;;;;;;;;;5006826;28;20485;-78
2022/05/06 02:49:26;;;;;;;17.50;15.20;;;;;;;;;;4992495;28;20845;-77
2022/05/06 02:52:03;;;;;;;20.60;14.23;;;;;;;;;;4975523;28;20508;-78
2022/05/06 02:54:40;;;;;;;17.93;16.00;;;;;;;;;;5004863;28;20445;-78
2022/05/06 02:57:18;;;;;;;20.67;14.40;;;;;;;;;;4974116;28;20481;-78
2022/05/06 02:59:57;;;;;;;17.90;14.30;;;;;;;;;;5006948;28;20436;-78
2022/05/06 03:02:34;;;;;;;18.50;15.10;;;;;;;;;;4977402;28;20453;-78
2022/05/06 03:05:13;;;;;;;20.33;17.50;;;;;;;;;;4992151;28;21013;-78
2022/05/06 03:07:49;;;;;;;18.33;15.57;;;;;;;;;;4993998;28;20792;-78
2022/05/06 03:10:27;;;;;;;17.77;15.60;;;;;;;;;;4992479;28;20469;-78
2022/05/06 03:13:03;;;;;;;21.17;16.27;;;;;;;;;;4990591;28;20465;-78
2022/05/06 03:15:42;;;;;;;16.30;14.57;;;;;;;;;;4990077;28;20793;-76
2022/05/06 03:18:22;;;;;;;18.13;15.80;;;;;;;;;;4986485;28;20437;-78
2022/05/06 03:20:58;;;;;;;17.43;14.60;;;;;;;;;;4991885;28;20429;-78
2022/05/06 03:23:34;;;;;;;25.13;16.57;;;;;;;;;;4992764;28;20433;-78
2022/05/06 03:26:11;;;;;;;16.80;15.00;;;;;;;;;;4994240;28;20453;-78
2022/05/06 03:28:48;;;;;;;22.37;16.27;;;;;;;;;;4976580;28;20449;-78
2022/05/06 03:31:28;;;;;;;17.23;14.90;;;;;;;;;;4978453;28;20963;-78
2022/05/06 03:34:16;;;;;;;17.87;15.50;;;;;;;;;;5006607;28;20852;-78
2022/05/06 03:36:52;;;;;;;19.50;16.60;;;;;;;;;;5007305;28;20461;-78
2022/05/06 03:39:28;;;;;;;16.53;14.27;;;;;;;;;;4989310;28;20450;-78
2022/05/06 03:42:11;;;;;;;17.70;15.80;;;;;;;;;;5007790;28;20457;-77
2022/05/06 03:44:48;;;;;;;19.73;15.70;;;;;;;;;;4975676;28;20454;-78
2022/05/06 03:47:28;;;;;;;17.30;14.37;;;;;;;;;;5008133;28;20963;-78
2022/05/06 03:52:58;;;;;;;21.37;14.37;;;;;;;;;;5009059;28;20456;-76
2022/05/06 03:55:34;;;;;;;17.80;14.97;;;;;;;;;;5002769;28;20453;-77
2022/05/06 03:58:10;;;;;;;20.80;15.33;;;;;;;;;;4974115;28;20845;-78
2022/05/06 04:00:45;;;;;;;18.50;14.20;;;;;;;;;;4991414;28;20433;-76
2022/05/06 04:03:28;;;;;;;20.73;16.20;;;;;;;;;;4989838;28;20442;-75
2022/05/06 04:06:04;;;;;;;17.47;14.27;;;;;;;;;;4992683;28;20472;-77
2022/05/06 04:08:42;;;;;;;16.47;14.57;;;;;;;;;;4981420;28;20644;-77
2022/05/06 04:11:19;;;;;;;18.13;15.53;;;;;;;;;;4974339;28;20489;-77
2022/05/06 04:13:57;;;;;;;17.40;13.90;;;;;;;;;;4976300;28;20441;-77
2022/05/06 04:16:34;;;;;;;17.07;14.80;;;;;;;;;;4989706;28;20453;-77
2022/05/06 04:19:13;;;;;;;17.57;14.90;;;;;;;;;;4973632;28;20458;-77
2022/05/06 04:24:53;;;;;;;17.73;15.10;;;;;;;;;;5011764;28;20437;-77
2022/05/06 04:27:33;;;;;;;16.17;14.47;;;;;;;;;;4983921;28;20926;-77
2022/05/06 04:30:09;;;;;;;14.93;13.20;;;;;;;;;;4989258;28;20500;-77
2022/05/06 04:32:56;;;;;;;16.43;14.07;;;;;;;;;;5005745;28;20462;-77
2022/05/06 04:35:33;;;;;;;15.60;13.63;;;;;;;;;;4990624;28;20936;-77
2022/05/06 04:38:09;;;;;;;16.73;14.43;;;;;;;;;;4997319;28;20855;-77
2022/05/06 04:40:47;;;;;;;16.10;14.50;;;;;;;;;;4986889;28;20433;-77
2022/05/06 04:43:23;;;;;;;16.77;15.07;;;;;;;;;;4985051;28;20456;-77
2022/05/06 04:46:02;;;;;;;16.73;14.80;;;;;;;;;;4988514;28;20429;-77
2022/05/06 04:48:40;;;;;;;15.67;13.97;;;;;;;;;;5000145;28;20886;-77
2022/05/06 04:51:22;;;;;;;17.57;15.03;;;;;;;;;;4972712;28;20485;-77
2022/05/06 04:53:57;;;;;;;17.50;13.53;;;;;;;;;;4984525;28;20469;-77
2022/05/06 04:56:32;;;;;;;18.90;15.83;;;;;;;;;;4972757;28;20535;-77
2022/05/06 04:59:16;;;;;;;18.00;15.50;;;;;;;;;;4986209;28;20813;-77
2022/05/06 05:01:58;;;;;;;17.13;14.70;;;;;;;;;;5003921;28;20454;-77
2022/05/06 05:04:33;;;;;;;20.27;15.50;;;;;;;;;;5018128;28;20492;-77
2022/05/06 05:07:23;;;;;;;16.30;13.97;;;;;;;;;;4987616;28;20947;-77
2022/05/06 05:10:04;;;;;;;19.80;15.07;;;;;;;;;;4976874;28;20477;-77
2022/05/06 05:12:40;;;;;;;16.77;14.47;;;;;;;;;;4979128;28;20506;-76
2022/05/06 05:15:16;;;;;;;17.87;15.80;;;;;;;;;;5007793;28;20448;-76
2022/05/06 05:17:51;;;;;;;16.93;15.07;;;;;;;;;;4975971;28;20543;-76
2022/05/06 05:20:27;;;;;;;16.67;14.30;;;;;;;;;;4991128;28;20452;-76
2022/05/06 05:23:06;;;;;;;19.37;16.53;;;;;;;;;;4975448;28;20452;-76
2022/05/06 05:25:45;;;;;;;16.13;13.93;;;;;;;;;;4993042;28;20444;-76
2022/05/06 05:28:22;;;;;;;18.60;15.00;;;;;;;;;;5007946;28;20452;-76
2022/05/06 05:30:58;;;;;;;18.73;16.37;;;;;;;;;;4982519;28;20456;-78
2022/05/06 05:33:34;;;;;;;17.80;13.93;;;;;;;;;;4994666;28;20893;-76
2022/05/06 05:36:09;;;;;;;17.50;14.13;;;;;;;;;;4995683;28;20440;-76
2022/05/06 05:38:46;;;;;;;16.80;14.83;;;;;;;;;;4988087;28;20456;-76
2022/05/06 05:41:21;;;;;;;19.97;13.83;;;;;;;;;;4991281;28;20475;-76
2022/05/06 05:49:48;;;;;;;17.40;13.90;;;;;;;;;;5009881;28;20440;-76
2022/05/06 05:52:28;;;;;;;17.00;14.60;;;;;;;;;;5011405;28;20452;-78
2022/05/06 05:55:06;;;;;;;20.80;15.57;;;;;;;;;;4978627;28;20485;-78
2022/05/06 05:57:42;;;;;;;16.07;14.10;;;;;;;;;;4974912;28;20570;-78
2022/05/06 06:00:20;;;;;;;16.63;13.60;;;;;;;;;;4978078;28;20439;-76
2022/05/06 06:03:02;;;;;;;16.00;14.00;;;;;;;;;;4975896;28;20476;-78
2022/05/06 06:05:41;;;;;;;21.50;14.27;;;;;;;;;;4975795;28;20468;-78
2022/05/06 06:08:18;;;;;;;16.30;14.57;;;;;;;;;;4976218;28;20820;-78
2022/05/06 06:11:01;;;;;;;19.17;15.00;;;;;;;;;;5007261;28;20458;-78
2022/05/06 06:13:38;;;;;;;15.70;12.00;;;;;;;;;;4974344;28;20453;-78
2022/05/06 06:16:19;;;;;;;14.90;13.30;;;;;;;;;;5003592;28;20461;-78
2022/05/06 06:18:58;;;;;;;22.33;14.27;;;;;;;;;;4985607;28;20476;-79
2022/05/06 06:21:34;;;;;;;19.10;15.50;;;;;;;;;;4975558;28;20449;-78
2022/05/06 06:24:09;;;;;;;17.60;13.10;;;;;;;;;;5004085;28;20449;-78
2022/05/06 06:26:46;;;;;;;15.27;13.67;;;;;;;;;;4988278;28;20449;-78
2022/05/06 06:29:29;;;;;;;17.00;13.93;;;;;;;;;;4972868;28;20481;-78
2022/05/06 06:32:07;;;;;;;16.20;14.37;;;;;;;;;;4989063;28;20508;-78
2022/05/06 06:34:42;;;;;;;20.63;13.90;;;;;;;;;;4990470;28;20789;-78
2022/05/06 06:37:20;;;;;;;15.13;13.10;;;;;;;;;;5004327;28;20556;-78
2022/05/06 06:39:59;;;;;;;18.60;14.30;;;;;;;;;;4987861;28;20445;-78
2022/05/06 06:42:37;;;;;;;14.77;13.00;;;;;;;;;;4975205;28;20450;-78
2022/05/06 06:45:24;;;;;;;15.20;13.37;;;;;;;;;;4989779;28;20481;-78
2022/05/06 06:48:08;;;;;;;18.57;13.87;;;;;;;;;;4983405;28;20457;-78
2022/05/06 06:51:02;;;;;;;15.70;13.93;;;;;;;;;;5015699;28;20453;-78
2022/05/06 06:53:39;;;;;;;17.13;13.90;;;;;;;;;;4988608;28;20445;-78
2022/05/06 06:56:14;;;;;;;16.70;14.40;;;;;;;;;;4989136;28;20456;-78
2022/05/06 06:58:51;;;;;;;15.60;13.50;;;;;;;;;;4985762;28;20450;-78
2022/05/06 07:01:27;;;;;;;16.00;13.20;;;;;;;;;;4994517;28;20536;-78
2022/05/06 07:04:02;;;;;;;15.63;13.93;;;;;;;;;;4990016;28;20453;-78
2022/05/06 07:12:23;;;;;;;12.03;10.80;;;;;;;;;;5025270;28;21021;-78
2022/05/06 07:15:01;;;;;;;13.37;11.90;;;;;;;;;;4993832;28;20440;-78
2022/05/06 07:17:36;;;;;;;13.00;11.50;;;;;;;;;;5010611;28;20452;-78
2022/05/06 07:20:12;;;;;;;13.53;12.10;;;;;;;;;;4990972;28;20456;-79
2022/05/06 07:22:47;;;;;;;14.67;11.90;;;;;;;;;;5008629;28;20459;-78
2022/05/06 07:25:22;;;;;;;14.80;11.67;;;;;;;;;;4996167;28;20551;-78
2022/05/06 07:27:58;;;;;;;13.90;11.63;;;;;;;;;;4992077;28;20534;-78
2022/05/06 07:30:35;;;;;;;12.90;11.50;;;;;;;;;;4994847;28;20784;-78
2022/05/06 07:33:10;;;;;;;13.87;12.07;;;;;;;;;;5012519;28;20491;-78
2022/05/06 07:38:37;;;;;;;13.60;12.20;;;;;;;;;;5041080;28;20482;-79
2022/05/06 07:41:12;;;;;;;13.97;11.83;;;;;;;;;;5041188;28;20447;-79
2022/05/06 07:43:48;;;;;;;15.20;12.60;;;;;;;;;;5044195;28;20447;-79
2022/05/06 07:46:28;;;;;;;15.50;12.73;;;;;;;;;;5043359;28;20455;-79
2022/05/06 07:49:03;;;;;;;11.87;10.57;;;;;;;;;;5045618;28;20553;-79
2022/05/06 07:51:39;;;;;;;13.33;10.90;;;;;;;;;;5045040;28;20459;-79
2022/05/06 07:54:15;;;;;;;13.17;11.50;;;;;;;;;;5040358;28;20792;-79
2022/05/06 07:56:50;;;;;;;12.93;11.50;;;;;;;;;;5044215;28;20446;-79
2022/05/06 07:59:27;;;;;;;12.27;10.90;;;;;;;;;;5044279;28;20854;-79
2022/05/06 08:05:00;;;;;;;12.77;11.47;;;;;;;;;;4991281;28;20813;-79
2022/05/06 08:07:35;;;;;;;11.80;10.60;;;;;;;;;;5042218;28;20447;-78
2022/05/06 08:10:10;;;;;;;11.53;10.33;;;;;;;;;;5043749;28;20458;-79
2022/05/06 08:12:46;;;;;;;12.10;10.70;;;;;;;;;;5040648;28;20458;-79
2022/05/06 08:15:22;;;;;;;12.03;9.87;;;;;;;;;;5045584;28;21843;-79
2022/05/06 08:18:00;;;;;;;13.10;11.50;;;;;;;;;;5044227;28;20575;-79
2022/05/06 08:20:39;;;;;;;13.97;11.37;;;;;;;;;;5056855;28;20884;-79
2022/05/06 08:23:14;;;;;;;13.13;10.80;;;;;;;;;;5045214;28;20446;-79
2022/05/06 08:25:50;;;;;;;16.70;11.93;;;;;;;;;;5039211;28;20458;-79
2022/05/06 08:28:28;;;;;;;14.20;10.17;;;;;;;;;;5038404;28;20528;-79
2022/05/06 08:31:03;;;;;;;11.13;9.93;;;;;;;;;;5045495;28;20463;-79
2022/05/06 08:33:40;;;;;;;14.43;11.17;;;;;;;;;;5045418;28;20450;-79
2022/05/06 08:36:16;;;;;;;12.57;10.07;;;;;;;;;;5044125;28;20442;-79
2022/05/06 08:38:51;;;;;;;10.77;9.67;;;;;;;;;;5051408;28;20954;-78
2022/05/06 08:41:27;;;;;;;10.87;9.40;;;;;;;;;;5064307;28;20445;-78
2022/05/06 08:52:44;;;;;;;10.97;9.87;;;;;;;;;;5044354;28;20980;-79
2022/05/06 08:55:19;;;;;;;10.83;9.53;;;;;;;;;;5048871;28;20453;-78
2022/05/06 08:57:55;;;;;;;12.57;10.43;;;;;;;;;;5043066;28;20449;-79
2022/05/06 09:00:31;;;;;;;13.10;8.67;;;;;;;;;;5045302;28;20437;-79
2022/05/06 09:03:07;;;;;;;9.80;8.80;;;;;;;;;;5046592;28;20454;-79
2022/05/06 09:05:50;;;;;;;10.73;9.40;;;;;;;;;;5036365;28;20446;-79
2022/05/06 09:08:36;;;;;;;11.57;8.90;;;;;;;;;;5050399;28;20978;-79
2022/05/06 09:11:12;;;;;;;9.73;8.03;;;;;;;;;;5049083;28;20818;-79
2022/05/06 09:13:55;;;;;;;10.83;8.57;;;;;;;;;;5068269;28;20880;-79
2022/05/06 09:16:41;;;;;;;9.67;7.97;;;;;;;;;;5066947;28;20806;-79
2022/05/06 09:19:19;;;;;;;11.00;9.13;;;;;;;;;;5052799;28;20457;-79
2022/05/06 09:22:06;;;;;;;13.13;9.97;;;;;;;;;;5068031;28;20485;-79
2022/05/06 09:24:42;;;;;;;11.10;9.70;;;;;;;;;;5066544;28;20461;-79
2022/05/06 09:27:18;;;;;;;11.70;8.63;;;;;;;;;;5046454;28;20792;-79
2022/05/06 09:29:54;;;;;;;10.37;8.30;;;;;;;;;;5067586;28;20552;-79
2022/05/06 09:32:30;;;;;;;9.17;7.10;;;;;;;;;;5049897;28;20986;-79
2022/05/06 09:35:12;;;;;;;10.00;8.70;;;;;;;;;;5048197;28;20441;-79
2022/05/06 09:37:49;;;;;;;9.70;8.50;;;;;;;;;;5067133;28;20490;-79
2022/05/06 09:40:29;;;;;;;11.53;9.47;;;;;;;;;;5069783;28;20441;-79
2022/05/06 09:43:04;;;;;;;10.10;8.77;;;;;;;;;;5047484;28;20438;-79
2022/05/06 09:45:42;;;;;;;11.87;9.80;;;;;;;;;;5049375;28;20457;-79
2022/05/06 09:48:19;;;;;;;13.90;9.13;;;;;;;;;;5032906;28;20457;-79
2022/05/06 09:50:54;;;;;;;9.37;8.37;;;;;;;;;;5048325;28;20540;-79
2022/05/06 09:53:37;;;;;;;10.30;8.97;;;;;;;;;;5073204;28;20472;-79
2022/05/06 09:56:12;;;;;;;12.57;8.13;;;;;;;;;;5065726;28;20474;-79
2022/05/06 09:58:48;;;;;;;9.40;8.03;;;;;;;;;;5068283;28;21060;-79
2022/05/06 10:01:23;;;;;;;13.00;8.50;;;;;;;;;;5048655;28;21167;-79
2022/05/06 10:03:59;;;;;;;8.53;7.63;;;;;;;;;;5049149;28;20473;-79
2022/05/06 10:06:35;;;;;;;12.00;9.40;;;;;;;;;;5047835;28;20458;-79
2022/05/06 10:09:13;;;;;;;8.80;7.47;;;;;;;;;;5046831;28;20498;-79
2022/05/06 10:11:51;;;;;;;10.63;8.70;;;;;;;;;;5052100;28;20466;-79
2022/05/06 10:14:27;;;;;;;9.33;8.33;;;;;;;;;;5065991;28;20505;-79
2022/05/06 10:17:03;;;;;;;10.00;9.03;;;;;;;;;;5065925;28;21110;-79
2022/05/06 10:19:49;;;;;;;10.57;8.63;;;;;;;;;;5065359;28;20985;-79
2022/05/06 10:22:52;;;;;;;9.67;8.60;;;;;;;;;;5064719;28;20438;-79
2022/05/06 10:25:46;;;;;;;10.13;9.10;;;;;;;;;;5047837;28;20454;-79
2022/05/06 10:35:05;;;;;;;10.03;9.03;;;;;;;;;;5064877;28;20450;-78
2022/05/06 10:37:43;;;;;;;9.80;8.70;;;;;;;;;;5045436;28;20449;-79
2022/05/06 10:40:32;;;;;;;10.90;8.67;;;;;;;;;;5066932;28;20441;-78
2022/05/06 10:43:07;;;;;;;11.87;9.47;;;;;;;;;;5050299;28;20430;-78
2022/05/06 10:45:46;;;;;;;10.03;8.70;;;;;;;;;;5045578;28;20832;-78
2022/05/06 10:48:23;;;;;;;9.33;8.30;;;;;;;;;;5048709;28;20446;-79
2022/05/06 10:51:19;;;;;;;11.60;10.40;;;;;;;;;;5047845;28;20441;-79
2022/05/06 10:54:01;;;;;;;9.23;7.67;;;;;;;;;;5064460;28;20454;-79
2022/05/06 10:56:44;;;;;;;11.80;8.37;;;;;;;;;;5051652;28;20473;-79
2022/05/06 10:59:19;;;;;;;11.10;9.13;;;;;;;;;;5067745;28;20785;-79
2022/05/06 11:02:09;;;;;;;11.00;8.23;;;;;;;;;;5048359;28;20480;-76
2022/05/06 11:04:51;;;;;;;11.60;8.73;;;;;;;;;;5066233;28;20453;-79
2022/05/06 11:07:31;;;;;;;10.67;8.70;;;;;;;;;;5046281;28;22229;-79
2022/05/06 11:10:10;;;;;;;10.70;9.10;;;;;;;;;;5046058;28;20972;-79
2022/05/06 11:12:47;;;;;;;9.77;8.77;;;;;;;;;;5065248;28;20461;-79
2022/05/06 11:15:23;;;;;;;11.77;8.20;;;;;;;;;;5066641;28;20438;-79
2022/05/06 11:17:59;;;;;;;9.77;8.80;;;;;;;;;;5041791;28;20442;-79
2022/05/06 11:20:37;;;;;;;9.10;8.20;;;;;;;;;;5036666;28;20848;-79
2022/05/06 11:23:18;;;;;;;10.33;9.33;;;;;;;;;;5063968;28;20455;-79
2022/05/06 11:25:55;;;;;;;9.07;8.20;;;;;;;;;;5043555;28;20438;-79
2022/05/06 11:28:32;;;;;;;8.77;7.97;;;;;;;;;;5063618;28;20438;-79
2022/05/06 11:31:07;;;;;;;9.97;7.47;;;;;;;;;;5063403;28;21446;-79
2022/05/06 11:33:44;;;;;;;11.67;8.13;;;;;;;;;;5026164;28;20478;-78
2022/05/06 11:36:33;;;;;;;9.73;8.30;;;;;;;;;;5062934;28;21097;-76
2022/05/06 11:39:12;;;;;;;8.30;6.90;;;;;;;;;;5038155;28;20471;-79
2022/05/06 11:41:47;;;;;;;9.50;8.60;;;;;;;;;;5033509;28;20859;-79
2022/05/06 11:47:27;;;;;;;7.93;7.10;;;;;;;;;;5045582;28;20458;-79
2022/05/06 11:47:29;;;;;;;10.30;7.97;;;;;;;;;;5044085;28;20650;-79
2022/05/06 11:50:05;;;;;;;8.43;7.33;;;;;;;;;;5042725;28;20451;-79
2022/05/06 11:52:43;;;;;;;11.40;6.73;;;;;;;;;;5044851;28;20454;-79
2022/05/06 11:55:18;;;;;;;8.40;7.20;;;;;;;;;;5043167;28;21226;-79
2022/05/06 11:57:54;;;;;;;6.93;6.33;;;;;;;;;;5041176;28;20439;-79
2022/05/06 12:00:30;;;;;;;8.10;7.30;;;;;;;;;;5041324;28;20450;-79
2022/05/06 12:03:09;;;;;;;9.47;7.83;;;;;;;;;;5046137;28;20442;-79
2022/05/06 12:05:58;;;;;;;8.00;7.20;;;;;;;;;;5044173;28;20447;-76
2022/05/06 12:08:37;;;;;;;8.90;8.00;;;;;;;;;;5039978;28;20558;-79
2022/05/06 12:11:12;;;;;;;12.93;7.63;;;;;;;;;;5043741;28;20447;-79
2022/05/06 12:14:04;;;;;;;10.10;8.10;;;;;;;;;;5044026;28;20487;-79
2022/05/06 12:16:53;;;;;;;9.23;8.33;;;;;;;;;;5040464;28;20447;-78
2022/05/06 12:19:35;;;;;;;9.43;7.13;;;;;;;;;;5039466;28;20455;-78
2022/05/06 12:22:12;;;;;;;9.47;7.70;;;;;;;;;;5041926;28;20455;-76
2022/05/06 12:24:50;;;;;;;8.63;7.67;;;;;;;;;;5039467;28;20450;-79
2022/05/06 12:27:27;;;;;;;8.50;7.67;;;;;;;;;;5045032;28;20508;-76
2022/05/06 12:30:04;;;;;;;10.40;7.73;;;;;;;;;;5036893;28;20454;-78
2022/05/06 12:32:41;;;;;;;9.40;8.40;;;;;;;;;;5039899;28;20462;-79
2022/05/06 12:35:16;;;;;;;8.83;7.90;;;;;;;;;;5040497;28;20447;-79
2022/05/06 12:37:54;;;;;;;8.93;7.70;;;;;;;;;;5041565;28;20801;-79
2022/05/06 12:40:32;;;;;;;10.17;8.30;;;;;;;;;;5019872;28;20444;-78
2022/05/06 12:43:08;;;;;;;8.17;7.40;;;;;;;;;;5022330;28;20957;-79
2022/05/06 12:45:52;;;;;;;8.47;7.67;;;;;;;;;;5026209;28;20443;-78
2022/05/06 12:51:21;;;;;;;8.40;7.60;;;;;;;;;;5022874;28;20966;-79
2022/05/06 12:53:57;;;;;;;9.60;7.80;;;;;;;;;;5022202;28;20826;-78
2022/05/06 12:56:45;;;;;;;10.53;7.37;;;;;;;;;;5047170;28;20464;-76
2022/05/06 12:59:20;;;;;;;8.87;8.07;;;;;;;;;;5039495;28;20467;-78
2022/05/06 13:01:56;;;;;;;9.70;8.53;;;;;;;;;;5023755;28;20427;-76
2022/05/06 13:04:31;;;;;;;9.30;7.10;;;;;;;;;;5023304;28;20454;-79
2022/05/06 13:07:06;;;;;;;9.73;8.13;;;;;;;;;;5039568;28;20432;-78
2022/05/06 13:09:42;;;;;;;9.77;8.17;;;;;;;;;;5025546;28;20455;-76
2022/05/06 13:12:34;;;;;;;17.60;9.10;;;;;;;;;;5022772;28;20503;-78
2022/05/06 13:15:10;;;;;;;11.43;8.20;;;;;;;;;;5040467;28;20856;-78
2022/05/06 13:17:45;;;;;;;8.60;7.70;;;;;;;;;;5040852;28;20946;-78
2022/05/06 13:20:21;;;;;;;8.83;8.00;;;;;;;;;;5023750;28;20447;-78
2022/05/06 13:22:58;;;;;;;20.60;9.00;;;;;;;;;;5024323;28;20768;-78
2022/05/06 13:25:35;;;;;;;7.87;7.10;;;;;;;;;;5021869;28;20545;-78
2022/05/06 13:28:13;;;;;;;9.13;7.47;;;;;;;;;;5023673;28;20546;-78
2022/05/06 13:31:02;;;;;;;9.03;8.13;;;;;;;;;;5024509;28;20571;-78
2022/05/06 13:33:51;;;;;;;8.70;7.83;;;;;;;;;;5023986;28;20626;-78
2022/05/06 13:36:38;;;;;;;8.47;7.63;;;;;;;;;;5016552;28;20452;-78
2022/05/06 13:39:18;;;;;;;10.23;6.97;;;;;;;;;;5051779;28;20472;-78
2022/05/06 13:41:54;;;;;;;8.70;7.80;;;;;;;;;;5042811;28;20945;-78
2022/05/06 13:47:25;;;;;;;11.07;7.73;;;;;;;;;;5047116;28;20442;-78
2022/05/06 13:50:03;;;;;;;7.30;6.60;;;;;;;;;;5032467;28;20438;-78
2022/05/06 13:52:39;;;;;;;9.00;6.87;;;;;;;;;;5049153;28;20467;-78
2022/05/06 13:55:20;;;;;;;7.60;6.70;;;;;;;;;;5047026;28;20476;-77
2022/05/06 14:00:54;;;;;;;9.30;7.50;;;;;;;;;;5049462;28;20957;-78
2022/05/06 14:03:33;;;;;;;10.00;7.50;;;;;;;;;;5039737;28;20423;-78
2022/05/06 14:06:09;;;;;;;8.23;6.70;;;;;;;;;;5028638;28;20455;-78
2022/05/06 14:08:45;;;;;;;7.57;6.87;;;;;;;;;;5051614;28;20446;-79
2022/05/06 14:11:21;;;;;;;8.73;7.57;;;;;;;;;;5031942;28;20888;-79
2022/05/06 14:13:57;;;;;;;7.87;7.07;;;;;;;;;;5048494;28;20828;-78
2022/05/06 14:16:34;;;;;;;7.83;6.83;;;;;;;;;;5048461;28;20989;-79
2022/05/06 14:19:23;;;;;;;8.27;7.43;;;;;;;;;;5050560;28;20520;-79
2022/05/06 14:21:58;;;;;;;8.57;7.70;;;;;;;;;;5049445;28;20450;-78
2022/05/06 14:24:34;;;;;;;8.97;7.73;;;;;;;;;;5042842;28;20474;-79
2022/05/06 14:27:10;;;;;;;8.13;6.90;;;;;;;;;;5047506;28;20454;-78
2022/05/06 14:29:45;;;;;;;10.57;7.80;;;;;;;;;;5045864;28;20458;-78
2022/05/06 14:32:22;;;;;;;8.10;7.30;;;;;;;;;;5064227;28;20443;-78
2022/05/06 14:35:16;;;;;;;7.50;6.80;;;;;;;;;;5047881;28;20533;-79
2022/05/06 14:37:52;;;;;;;8.70;7.30;;;;;;;;;;5047130;28;20438;-78
2022/05/06 14:40:29;;;;;;;7.30;6.53;;;;;;;;;;5029075;28;20784;-78
2022/05/06 14:43:05;;;;;;;7.53;6.83;;;;;;;;;;5029521;28;20934;-78
2022/05/06 14:46:04;;;;;;;8.57;7.00;;;;;;;;;;5031588;28;20459;-77
2022/05/06 14:48:41;;;;;;;8.33;7.33;;;;;;;;;;5045674;28;20456;-76
2022/05/06 14:51:16;;;;;;;8.63;6.77;;;;;;;;;;5025773;28;20547;-77
2022/05/06 14:53:52;;;;;;;9.70;7.20;;;;;;;;;;5027187;28;20459;-78
2022/05/06 14:56:27;;;;;;;8.20;7.30;;;;;;;;;;5039387;28;20451;-78
2022/05/06 14:59:04;;;;;;;8.73;7.70;;;;;;;;;;5028782;28;20451;-78
2022/05/06 15:01:41;;;;;;;8.07;7.00;;;;;;;;;;5031538;28;20443;-78
2022/05/06 15:04:23;;;;;;;8.00;7.20;;;;;;;;;;5027089;28;20431;-77
2022/05/06 15:06:59;;;;;;;9.00;7.97;;;;;;;;;;5025242;28;20861;-78
2022/05/06 15:09:34;;;;;;;7.47;6.73;;;;;;;;;;5026250;28;20454;-79
2022/05/06 15:12:11;;;;;;;9.83;7.40;;;;;;;;;;5026605;28;20450;-77
2022/05/06 15:14:50;;;;;;;9.00;7.60;;;;;;;;;;5023338;28;20867;-79
2022/05/06 15:17:28;;;;;;;8.00;7.20;;;;;;;;;;5022750;28;20451;-79
2022/05/06 15:20:10;;;;;;;8.33;7.33;;;;;;;;;;5028074;28;20464;-79
2022/05/06 15:22:45;;;;;;;9.40;6.70;;;;;;;;;;5028114;28;20447;-80
2022/05/06 15:25:21;;;;;;;10.00;7.33;;;;;;;;;;5026375;28;20450;-79
2022/05/06 15:27:56;;;;;;;8.33;7.53;;;;;;;;;;5024203;28;20436;-79
2022/05/06 15:30:32;;;;;;;9.23;7.73;;;;;;;;;;5025566;28;20467;-79
2022/05/06 15:33:07;;;;;;;9.40;7.97;;;;;;;;;;5029485;28;20866;-79
2022/05/06 15:35:45;;;;;;;8.57;7.67;;;;;;;;;;5026972;28;20455;-78
2022/05/06 15:38:20;;;;;;;9.20;8.40;;;;;;;;;;5029981;28;20848;-79
2022/05/06 15:40:55;;;;;;;10.87;7.20;;;;;;;;;;5049516;28;20474;-78
2022/05/06 15:43:33;;;;;;;9.90;8.23;;;;;;;;;;5031395;28;20447;-78
2022/05/06 15:46:08;;;;;;;9.00;7.90;;;;;;;;;;5030223;28;20458;-79
2022/05/06 15:48:44;;;;;;;9.73;8.40;;;;;;;;;;5024953;28;20454;-78
2022/05/06 15:51:20;;;;;;;8.20;7.17;;;;;;;;;;5043282;28;20545;-78
2022/05/06 15:53:56;;;;;;;8.60;7.70;;;;;;;;;;5040188;28;20482;-78
2022/05/06 15:56:31;;;;;;;8.27;7.33;;;;;;;;;;5046290;28;20550;-78
2022/05/06 15:59:07;;;;;;;7.87;6.50;;;;;;;;;;5045322;28;20442;-78
2022/05/06 16:01:42;;;;;;;8.40;7.47;;;;;;;;;;5044699;28;20455;-78
2022/05/06 16:04:18;;;;;;;11.00;8.37;;;;;;;;;;5029809;28;20831;-78
2022/05/06 16:06:54;;;;;;;8.00;6.90;;;;;;;;;;5045177;28;20950;-78
2022/05/06 16:09:30;;;;;;;8.90;8.10;;;;;;;;;;5046332;28;20856;-78
2022/05/06 16:12:05;;;;;;;8.10;7.20;;;;;;;;;;5058355;28;20831;-78
2022/05/06 16:17:34;;;;;;;9.63;7.73;;;;;;;;;;5030152;28;20536;-78
2022/05/06 16:20:10;;;;;;;7.73;6.93;;;;;;;;;;5044420;28;20503;-79
2022/05/06 16:22:49;;;;;;;9.77;7.40;;;;;;;;;;5046018;28;20431;-78
2022/05/06 16:25:24;;;;;;;7.97;7.20;;;;;;;;;;5041509;28;20537;-78